Terminal Aerodrome Forecast
Issued by NWS

Home | Current Version | Previous Version | Text Only | Print | Product List | Glossary On
Versions: 1 2 3 4 5 6 7 8 9 10 11 12 13 14 15 16 17 18 19 20 21 22 23 24 25 26 27 28 29 30 31 32 33 34 35 36 37
000
FTUS45 KGJT 221617 AAA
TAFMTJ
TAF AMD
KMTJ 221617Z 2216/2312 14004KT P6SM SCT040 BKN060 WS020/32030KT
     FM221800 30008KT P6SM SCT035 BKN050
      TEMPO 2218/2220 5SM -RASN BKN035
     FM222000 30012G25KT P6SM VCSH SCT015 BKN035
      TEMPO 2220/2224 4SM -SN BKN015
     FM230000 30010G20KT P6SM VCSH OVC015
     FM230500 14005KT P6SM FEW020 BKN050=

USA.gov is the U.S. government's official web portal to all federal, state and local government web resources and services.